createdAt,value
2023-01-31T00:00:47.928Z,82.59
2023-01-31T00:04:02.203Z,82.65
2023-01-31T00:07:05.390Z,82.63
2023-01-31T00:10:09.628Z,82.76
2023-01-31T00:13:12.867Z,82.79
2023-01-31T00:16:17.519Z,82.88
2023-01-31T00:19:20.680Z,83.00
2023-01-31T00:22:24.013Z,83.07
2023-01-31T00:25:27.230Z,83.12
2023-01-31T00:28:30.399Z,83.16
2023-01-31T00:31:35.216Z,83.15
2023-01-31T00:34:38.791Z,83.21
2023-01-31T00:37:42.134Z,83.31
2023-01-31T00:40:52.769Z,83.25
2023-01-31T00:43:56.090Z,83.21
2023-01-31T00:46:59.381Z,83.12
2023-01-31T00:50:03.299Z,83.26
2023-01-31T00:53:07.046Z,83.20
2023-01-31T00:56:14.258Z,83.21
2023-01-31T00:59:18.125Z,83.15
2023-01-31T01:02:21.386Z,83.11
2023-01-31T01:05:24.733Z,83.09
2023-01-31T01:08:31.118Z,83.00
2023-01-31T01:11:35.714Z,82.98
2023-01-31T01:14:39.512Z,82.88
2023-01-31T01:17:42.755Z,82.83
2023-01-31T01:20:45.929Z,82.70
2023-01-31T01:23:50.023Z,82.71
2023-01-31T01:26:53.311Z,82.68
2023-01-31T01:29:56.601Z,82.65
2023-01-31T01:33:00.044Z,82.59
2023-01-31T01:36:05.727Z,82.54
2023-01-31T01:39:10.752Z,82.51
2023-01-31T01:42:19.419Z,82.42
2023-01-31T01:45:23.080Z,82.22
2023-01-31T01:48:27.824Z,82.13
2023-01-31T01:51:34.122Z,82.01
2023-01-31T01:54:46.437Z,81.80
2023-01-31T01:57:56.754Z,81.62
2023-01-31T02:01:00.758Z,81.47
2023-01-31T02:04:07.774Z,81.38
2023-01-31T02:07:11.168Z,81.31
2023-01-31T02:10:20.797Z,81.24
2023-01-31T02:13:25.186Z,81.22
2023-01-31T02:16:29.216Z,81.22
2023-01-31T02:20:01.387Z,81.22
2023-01-31T02:23:49.954Z,81.24
2023-01-31T02:27:05.194Z,81.23
2023-01-31T02:30:33.484Z,81.18
2023-01-31T02:33:51.751Z,81.30
2023-01-31T02:37:36.932Z,81.22
2023-01-31T02:41:03.461Z,81.24
2023-01-31T02:44:46.314Z,81.24
2023-01-31T02:47:49.716Z,81.30
2023-01-31T02:51:16.058Z,81.34
2023-01-31T02:54:46.196Z,81.46
2023-01-31T02:57:53.115Z,81.54
2023-01-31T03:00:59.947Z,81.61
2023-01-31T03:04:06.428Z,81.66
2023-01-31T03:07:27.024Z,81.77
2023-01-31T03:10:48.860Z,81.78
2023-01-31T03:14:06.837Z,81.65
2023-01-31T03:17:35.162Z,81.65
2023-01-31T03:20:50.115Z,81.68
2023-01-31T03:23:55.786Z,81.66
2023-01-31T03:27:02.627Z,81.68
2023-01-31T03:30:16.273Z,81.68
2023-01-31T03:33:36.467Z,81.67
2023-01-31T03:36:57.804Z,81.70
2023-01-31T03:40:22.785Z,81.61
2023-01-31T03:43:38.143Z,81.58
2023-01-31T03:46:48.075Z,81.51
2023-01-31T03:49:52.857Z,81.49
2023-01-31T03:53:06.875Z,81.50
2023-01-31T03:56:32.516Z,81.48
2023-01-31T03:59:39.696Z,81.38
2023-01-31T04:02:43.848Z,81.43
2023-01-31T04:05:49.220Z,81.48
2023-01-31T04:08:53.087Z,81.42
2023-01-31T04:12:00.757Z,81.47
2023-01-31T04:15:05.631Z,81.50
2023-01-31T04:18:08.870Z,81.53
2023-01-31T04:21:14.502Z,81.53
2023-01-31T04:24:17.744Z,81.61
2023-01-31T04:27:21.003Z,81.74
2023-01-31T04:30:24.242Z,81.86
2023-01-31T04:33:27.440Z,81.98
2023-01-31T04:36:30.654Z,82.13
2023-01-31T04:39:33.943Z,82.24
2023-01-31T04:42:37.163Z,82.30
2023-01-31T04:45:40.445Z,82.33
2023-01-31T04:48:43.657Z,82.35
2023-01-31T04:51:46.909Z,82.39
2023-01-31T04:54:50.216Z,82.43
2023-01-31T04:57:53.587Z,82.48
2023-01-31T05:00:56.934Z,82.53
2023-01-31T05:04:00.240Z,82.55
2023-01-31T05:07:03.496Z,82.57
2023-01-31T05:10:07.782Z,82.54
2023-01-31T05:13:11.649Z,82.55
2023-01-31T05:16:14.874Z,82.54
2023-01-31T05:19:18.105Z,82.54
2023-01-31T05:22:22.677Z,82.52
2023-01-31T05:25:26.657Z,82.41
2023-01-31T05:28:30.024Z,82.40
2023-01-31T05:31:33.393Z,82.34
2023-01-31T05:34:36.714Z,82.25
2023-01-31T05:37:42.989Z,82.15
2023-01-31T05:40:46.518Z,82.06
2023-01-31T05:43:50.006Z,81.97
2023-01-31T05:46:53.338Z,81.83
2023-01-31T05:49:56.526Z,81.77
2023-01-31T05:53:03.150Z,81.66
2023-01-31T05:56:06.919Z,81.56
2023-01-31T05:59:10.805Z,81.50
2023-01-31T06:02:14.103Z,81.46
2023-01-31T06:05:17.525Z,81.44
2023-01-31T06:08:21.076Z,81.41
2023-01-31T06:11:25.358Z,81.40
2023-01-31T06:14:28.629Z,81.40
2023-01-31T06:17:31.934Z,81.35
2023-01-31T06:20:35.179Z,81.37
2023-01-31T06:23:38.396Z,81.36
2023-01-31T06:26:41.644Z,81.33
2023-01-31T06:29:44.835Z,81.30
2023-01-31T06:32:48.162Z,81.26
2023-01-31T06:35:51.362Z,81.21
2023-01-31T06:38:54.620Z,81.16
2023-01-31T06:41:57.918Z,81.08
2023-01-31T06:45:01.158Z,81.04
2023-01-31T06:48:04.569Z,81.01
2023-01-31T06:51:07.806Z,80.98
2023-01-31T06:54:11.253Z,80.93
2023-01-31T06:57:14.459Z,80.86
2023-01-31T07:00:21.295Z,80.79
2023-01-31T07:03:24.657Z,80.73
2023-01-31T07:06:28.109Z,80.69
2023-01-31T07:09:31.558Z,80.64
2023-01-31T07:12:35.039Z,80.59
2023-01-31T07:15:38.325Z,80.52
2023-01-31T07:18:41.765Z,80.43
2023-01-31T07:21:45.043Z,80.37
2023-01-31T07:24:50.983Z,80.30
2023-01-31T07:27:54.364Z,80.26
2023-01-31T07:31:05.433Z,80.19
2023-01-31T07:34:08.786Z,80.15
2023-01-31T07:37:12.125Z,80.12
2023-01-31T07:40:15.873Z,80.06
2023-01-31T07:43:19.196Z,79.99
2023-01-31T07:46:22.546Z,79.97
2023-01-31T07:49:25.939Z,79.88
2023-01-31T07:52:29.631Z,79.81
2023-01-31T08:00:24.677Z,79.80
2023-01-31T08:03:33.652Z,79.70
2023-01-31T08:06:39.402Z,79.68
2023-01-31T08:09:43.724Z,79.60
2023-01-31T08:12:49.440Z,79.52
2023-01-31T08:15:54.162Z,79.45
2023-01-31T08:18:57.616Z,79.41
2023-01-31T08:22:01.674Z,79.36
2023-01-31T08:25:05.661Z,79.32
2023-01-31T08:28:09.609Z,79.24
2023-01-31T08:31:24.733Z,79.18
2023-01-31T08:34:28.386Z,79.10
2023-01-31T08:37:32.923Z,79.09
2023-01-31T08:40:36.301Z,79.07
2023-01-31T08:43:54.351Z,79.05
2023-01-31T08:47:02.155Z,78.94
2023-01-31T08:50:07.640Z,78.86
2023-01-31T08:53:12.487Z,78.70
2023-01-31T08:56:16.320Z,78.57
2023-01-31T08:59:19.647Z,78.53
2023-01-31T09:02:23.004Z,78.33
2023-01-31T09:05:28.887Z,78.20
2023-01-31T09:08:33.068Z,78.07
2023-01-31T09:11:36.504Z,77.96
2023-01-31T09:14:39.848Z,77.98
2023-01-31T09:17:44.463Z,77.84
2023-01-31T09:20:47.740Z,77.76
2023-01-31T09:23:56.548Z,77.63
2023-01-31T09:27:00.369Z,77.37
2023-01-31T09:30:04.871Z,77.11
2023-01-31T09:33:08.284Z,76.99
2023-01-31T09:36:15.093Z,76.74
2023-01-31T09:39:18.561Z,76.45
2023-01-31T09:42:31.928Z,76.13
2023-01-31T09:45:40.440Z,76.05
2023-01-31T09:48:50.673Z,75.96
2023-01-31T09:51:58.993Z,75.81
2023-01-31T09:55:02.262Z,75.78
2023-01-31T09:58:38.898Z,75.77
2023-01-31T10:01:51.318Z,75.84
2023-01-31T10:05:16.732Z,75.80
2023-01-31T10:08:39.791Z,75.91
2023-01-31T10:12:15.148Z,75.82
2023-01-31T10:15:41.248Z,75.87
2023-01-31T10:18:50.391Z,75.89
2023-01-31T10:21:57.507Z,75.90
2023-01-31T10:25:20.861Z,75.99
2023-01-31T10:28:43.702Z,76.11
2023-01-31T10:31:56.346Z,76.23
2023-01-31T10:35:11.201Z,76.31
2023-01-31T10:38:27.819Z,76.31
2023-01-31T10:41:45.353Z,76.34
2023-01-31T10:45:18.365Z,76.35
2023-01-31T10:48:27.035Z,76.30
2023-01-31T10:51:36.452Z,76.31
2023-01-31T10:55:14.830Z,76.34
2023-01-31T10:58:22.385Z,76.23
2023-01-31T11:01:26.183Z,76.12
2023-01-31T11:04:39.141Z,75.93
2023-01-31T11:07:42.473Z,75.71
2023-01-31T11:10:55.866Z,75.53
2023-01-31T11:14:02.483Z,75.33
2023-01-31T11:17:27.845Z,75.18
2023-01-31T11:20:44.809Z,75.02
2023-01-31T11:23:52.963Z,74.95
2023-01-31T11:27:14.142Z,74.82
2023-01-31T11:30:35.321Z,74.77
2023-01-31T11:33:44.401Z,74.55
2023-01-31T11:36:49.075Z,74.49
2023-01-31T11:40:21.433Z,74.31
2023-01-31T11:43:26.944Z,74.12
2023-01-31T11:46:48.856Z,74.08
2023-01-31T11:49:54.332Z,74.12
2023-01-31T11:53:00.813Z,74.16
2023-01-31T11:56:19.865Z,74.29
2023-01-31T11:59:29.821Z,74.23
2023-01-31T12:02:40.342Z,74.22
2023-01-31T12:05:51.917Z,74.14
2023-01-31T12:08:58.019Z,74.24
2023-01-31T12:12:08.041Z,74.18
2023-01-31T12:15:17.477Z,73.98
2023-01-31T12:18:27.686Z,73.82
2023-01-31T12:21:43.521Z,73.59
2023-01-31T12:25:11.599Z,73.47
2023-01-31T12:28:34.038Z,73.17
2023-01-31T12:31:58.255Z,73.08
2023-01-31T12:35:15.348Z,73.14
2023-01-31T12:38:36.726Z,73.17
2023-01-31T12:41:42.095Z,73.39
2023-01-31T12:44:57.301Z,73.55
2023-01-31T12:48:19.182Z,73.69
2023-01-31T12:51:34.674Z,73.82
2023-01-31T12:54:51.664Z,73.92
2023-01-31T12:58:33.867Z,74.04
2023-01-31T13:01:52.288Z,74.18
2023-01-31T13:05:27.019Z,74.22
2023-01-31T13:08:35.019Z,74.32
2023-01-31T13:11:48.263Z,74.38
2023-01-31T13:15:04.749Z,74.45
2023-01-31T13:18:14.722Z,74.49
2023-01-31T13:21:24.984Z,74.40
2023-01-31T13:24:36.317Z,74.35
2023-01-31T13:27:42.304Z,74.51
2023-01-31T13:30:52.031Z,74.58
2023-01-31T13:34:03.167Z,74.61
2023-01-31T13:37:12.743Z,74.64
2023-01-31T13:40:24.043Z,74.72
2023-01-31T13:43:27.514Z,74.77
2023-01-31T13:46:37.992Z,74.75
2023-01-31T13:50:21.701Z,74.76
2023-01-31T13:53:30.418Z,74.88
2023-01-31T13:56:36.466Z,74.91
2023-01-31T13:59:40.461Z,74.91
2023-01-31T14:03:10.027Z,74.90
2023-01-31T14:06:14.003Z,74.91
2023-01-31T14:09:30.671Z,74.99
2023-01-31T14:12:36.173Z,75.06
2023-01-31T14:15:50.051Z,75.03
2023-01-31T14:18:53.566Z,75.02
2023-01-31T14:22:13.215Z,74.99
2023-01-31T14:25:16.635Z,74.95
2023-01-31T14:28:21.412Z,75.03
2023-01-31T14:31:27.132Z,75.04
2023-01-31T14:34:32.794Z,75.07
2023-01-31T14:37:57.343Z,75.13
2023-01-31T14:41:14.897Z,75.23
2023-01-31T14:44:41.012Z,75.38
2023-01-31T14:47:57.501Z,75.51
2023-01-31T14:51:18.708Z,75.67
2023-01-31T14:55:06.969Z,75.87
2023-01-31T14:58:23.146Z,76.16
2023-01-31T15:01:35.780Z,76.39
2023-01-31T15:04:40.138Z,76.61
2023-01-31T15:08:27.070Z,76.65
2023-01-31T15:11:42.265Z,76.84
2023-01-31T15:14:49.344Z,77.01
2023-01-31T15:17:54.371Z,77.15
2023-01-31T15:21:01.600Z,77.30
2023-01-31T15:24:06.665Z,77.44
2023-01-31T15:27:31.534Z,77.61
2023-01-31T15:30:36.771Z,77.78
2023-01-31T15:33:47.614Z,77.85
2023-01-31T15:37:02.522Z,77.98
2023-01-31T15:40:23.427Z,78.15
2023-01-31T15:43:27.033Z,78.25
2023-01-31T15:46:33.344Z,78.35
2023-01-31T15:49:44.291Z,78.41
2023-01-31T15:52:47.724Z,78.43
2023-01-31T15:55:55.873Z,78.51
2023-01-31T15:58:59.540Z,78.59
2023-01-31T16:02:05.836Z,78.56
2023-01-31T16:05:09.387Z,78.61
2023-01-31T16:08:32.872Z,78.59
2023-01-31T16:11:38.614Z,78.59
2023-01-31T16:14:48.390Z,78.56
2023-01-31T16:17:53.519Z,78.55
2023-01-31T16:20:58.092Z,78.54
2023-01-31T16:24:08.653Z,78.54
2023-01-31T16:27:17.898Z,78.49
2023-01-31T16:30:21.447Z,78.53
2023-01-31T16:33:24.828Z,78.58
2023-01-31T16:36:34.562Z,78.58
2023-01-31T16:39:37.765Z,78.69
2023-01-31T16:42:41.126Z,78.86
2023-01-31T16:46:00.817Z,78.98
2023-01-31T16:49:21.296Z,79.12
2023-01-31T16:52:29.797Z,79.14
2023-01-31T16:55:33.008Z,79.18
2023-01-31T16:58:44.443Z,79.25
2023-01-31T17:02:01.149Z,79.33
2023-01-31T17:05:29.742Z,79.41
2023-01-31T17:08:38.038Z,79.46
2023-01-31T17:11:43.829Z,79.52
2023-01-31T17:14:48.035Z,79.57
2023-01-31T17:17:51.298Z,79.61
2023-01-31T17:20:54.686Z,79.64
2023-01-31T17:23:57.861Z,79.73
2023-01-31T17:27:01.373Z,79.79
2023-01-31T17:30:04.987Z,79.87
2023-01-31T17:33:12.595Z,79.92
2023-01-31T17:36:16.943Z,79.98
2023-01-31T17:39:20.145Z,80.03
2023-01-31T17:42:23.571Z,80.10
2023-01-31T17:45:27.424Z,80.14
2023-01-31T17:48:30.650Z,80.20
2023-01-31T17:51:33.927Z,80.28
2023-01-31T17:54:37.297Z,80.33
2023-01-31T17:57:40.715Z,80.33
2023-01-31T18:00:46.242Z,80.35
2023-01-31T18:03:50.592Z,80.41
2023-01-31T18:06:53.861Z,80.42
2023-01-31T18:09:58.058Z,80.46
2023-01-31T18:13:01.462Z,80.52
2023-01-31T18:16:06.864Z,80.54
2023-01-31T18:19:11.764Z,80.54
2023-01-31T18:22:17.336Z,80.59
2023-01-31T18:25:21.104Z,80.68
2023-01-31T18:28:25.070Z,80.77
2023-01-31T18:31:28.763Z,80.79
2023-01-31T18:34:33.815Z,80.85
2023-01-31T18:37:37.123Z,80.88
2023-01-31T18:40:40.471Z,80.95
2023-01-31T18:43:44.981Z,81.00
2023-01-31T18:46:48.711Z,81.05
2023-01-31T18:49:52.116Z,81.12
2023-01-31T18:52:55.416Z,81.17
2023-01-31T18:56:10.800Z,81.20
2023-01-31T18:59:14.114Z,81.23
2023-01-31T19:02:17.736Z,81.32
2023-01-31T19:05:22.614Z,81.35
2023-01-31T19:08:26.102Z,81.37
2023-01-31T19:11:30.275Z,81.41
2023-01-31T19:14:33.475Z,81.44
2023-01-31T19:17:37.137Z,81.51
2023-01-31T19:20:40.374Z,81.49
2023-01-31T19:23:44.459Z,81.51
2023-01-31T19:26:47.838Z,81.51
2023-01-31T19:29:51.361Z,81.48
2023-01-31T19:32:54.559Z,81.47
2023-01-31T19:35:57.758Z,81.50
2023-01-31T19:39:04.465Z,81.55
2023-01-31T19:42:08.678Z,81.58
2023-01-31T19:45:12.053Z,81.62
2023-01-31T19:48:25.213Z,81.64
2023-01-31T19:51:29.390Z,81.65
2023-01-31T19:54:32.745Z,81.64
2023-01-31T19:57:36.007Z,81.65
2023-01-31T20:00:39.265Z,81.67
2023-01-31T20:03:43.551Z,81.71
2023-01-31T20:06:47.011Z,81.72
2023-01-31T20:09:50.335Z,81.70
2023-01-31T20:12:53.611Z,81.76
2023-01-31T20:16:01.533Z,81.79
2023-01-31T20:19:06.898Z,81.83
2023-01-31T20:22:10.193Z,81.87
2023-01-31T20:25:13.392Z,81.88
2023-01-31T20:28:17.499Z,81.91
2023-01-31T20:31:21.451Z,81.92
2023-01-31T20:34:24.806Z,81.93
2023-01-31T20:37:31.015Z,81.95
2023-01-31T20:40:34.287Z,81.98
2023-01-31T20:43:38.059Z,81.94
2023-01-31T20:46:41.285Z,81.98
2023-01-31T20:49:44.535Z,81.99
2023-01-31T20:52:47.970Z,82.04
2023-01-31T20:56:02.885Z,82.09
2023-01-31T20:59:06.132Z,82.07
2023-01-31T21:02:10.895Z,82.11
2023-01-31T21:05:14.217Z,82.14
2023-01-31T21:08:18.691Z,82.16
2023-01-31T21:11:22.372Z,82.15
2023-01-31T21:14:25.960Z,82.22
2023-01-31T21:17:39.641Z,82.30
2023-01-31T21:20:43.847Z,82.28
2023-01-31T21:23:47.202Z,82.32
2023-01-31T21:26:51.122Z,82.32
2023-01-31T21:29:54.428Z,82.31
2023-01-31T21:32:59.719Z,82.32
2023-01-31T21:36:14.063Z,82.32
2023-01-31T21:39:17.300Z,82.30
2023-01-31T21:42:21.812Z,82.22
2023-01-31T21:45:40.291Z,82.18
2023-01-31T21:48:43.651Z,82.17
2023-01-31T21:51:48.336Z,82.13
2023-01-31T21:54:51.691Z,82.09
2023-01-31T21:57:54.997Z,82.11
2023-01-31T22:01:12.075Z,82.07
2023-01-31T22:04:20.631Z,82.09
2023-01-31T22:07:23.966Z,82.11
2023-01-31T22:10:27.293Z,82.14
2023-01-31T22:13:31.532Z,82.17
2023-01-31T22:16:35.259Z,82.17
2023-01-31T22:19:38.758Z,82.18
2023-01-31T22:22:43.341Z,82.20
2023-01-31T22:25:46.637Z,82.17
2023-01-31T22:28:51.492Z,82.16
2023-01-31T22:31:56.095Z,82.16
2023-01-31T22:34:59.470Z,82.18
2023-01-31T22:38:04.193Z,82.18
2023-01-31T22:41:10.322Z,82.17
2023-01-31T22:44:13.853Z,82.13
2023-01-31T22:47:17.119Z,82.11
2023-01-31T22:50:20.728Z,82.10
2023-01-31T22:53:29.537Z,82.06
2023-01-31T22:56:34.656Z,82.05
2023-01-31T22:59:38.011Z,82.01
2023-01-31T23:02:41.248Z,81.96
2023-01-31T23:05:45.249Z,81.97
2023-01-31T23:08:48.888Z,81.94
2023-01-31T23:11:52.469Z,81.89
2023-01-31T23:14:56.030Z,81.90
2023-01-31T23:17:59.588Z,81.91
2023-01-31T23:21:19.341Z,81.90
2023-01-31T23:24:22.828Z,81.89
2023-01-31T23:27:26.328Z,81.87
2023-01-31T23:30:29.983Z,81.90
2023-01-31T23:33:33.639Z,81.90
2023-01-31T23:36:37.222Z,81.90
2023-01-31T23:39:42.308Z,81.94
2023-01-31T23:42:45.902Z,81.97
2023-01-31T23:45:50.112Z,81.98
2023-01-31T23:48:53.752Z,82.00
2023-01-31T23:51:57.668Z,82.03
2023-01-31T23:55:01.402Z,82.05
2023-01-31T23:58:05.019Z,82.04
